Open Full Screen Window  High Contrast Mode
Wind Gusting 27 knots
18
February 01, 2015 8:35 AM CST
Present Weather: Light Snow
Weather Information
Wind Direction
  010 °
Wind Speed
  18 kt (21 mph)
Wind Gust
  27 kt (31 mph)
Altimeter
30.21 in
Visibility
2 1/2 SM
Temperature
-17° C
F
Dewpoint
-17° C
F
Humidity
100%
1hr Rain Fall
00.01 in.
24hr Rain Fall
02.23 in.
Sky Condition
Overcast @ 800 ft
IFR

METAR KMDS 011435Z AUTO 01018G27KT 2 1/2SM -SN OVC008 M17/M17 A3021 RMK AO2 VSBY 2V4 P0001

*Background is not an actual portrayal of the airport.